Time;durP1;ratioP1;P1;durP2;ratioP2;P2;SDS_P1;SDS_P2;PMS_P1;PMS_P2;Temp;Humidity;BMP_temperature;BMP_pressure;BME280_temperature;BME280_humidity;BME280_pressure;Samples;Min_cycle;Max_cycle;Signal;HPM_P1;HPM_P2
2020/12/28 06:01:10;;;;;;;15.00;6.97;;;1.60;97.30;;;;;;5692690;23;20515;-72
2020/12/28 06:03:43;;;;;;;10.47;5.20;;;1.60;97.30;;;;;;4917534;29;20919;-72
2020/12/28 06:06:08;;;;;;;9.53;5.67;;;1.60;97.30;;;;;;4919293;29;20533;-73
2020/12/28 06:08:34;;;;;;;13.23;5.97;;;1.60;97.30;;;;;;4919702;29;20464;-73
2020/12/28 06:11:05;;;;;;;14.27;6.70;;;1.60;97.30;;;;;;4919222;29;20201;-72
2020/12/28 06:13:31;;;;;;;9.73;5.27;;;1.60;97.30;;;;;;4921287;29;20864;-72
2020/12/28 06:16:04;;;;;;;11.43;6.30;;;1.60;97.30;;;;;;4918922;29;20574;-71
2020/12/28 06:18:30;;;;;;;8.63;5.43;;;1.60;97.30;;;;;;4919312;29;20439;-72
2020/12/28 06:20:56;;;;;;;13.60;6.10;;;1.60;97.30;;;;;;4920403;29;21013;-72
2020/12/28 06:23:26;;;;;;;11.00;6.50;;;1.60;97.30;;;;;;4920393;29;20554;-72
2020/12/28 06:25:56;;;;;;;10.97;6.00;;;1.60;97.30;;;;;;4920045;29;20169;-72
2020/12/28 06:28:23;;;;;;;10.53;5.37;;;1.60;97.30;;;;;;4919951;29;20417;-72
2020/12/28 06:30:49;;;;;;;10.33;6.30;;;1.60;97.30;;;;;;4919891;29;20491;-72
2020/12/28 06:33:16;;;;;;;11.27;6.43;;;1.50;97.30;;;;;;4934554;29;20440;-72
2020/12/28 06:35:42;;;;;;;11.43;5.53;;;1.50;97.30;;;;;;4919994;29;20271;-72
2020/12/28 06:38:08;;;;;;;12.77;6.63;;;1.50;97.30;;;;;;4918386;29;20967;-72
2020/12/28 06:40:36;;;;;;;10.57;5.33;;;1.50;97.30;;;;;;4918428;29;20259;-72
2020/12/28 06:43:17;;;;;;;7.13;4.90;;;1.40;97.30;;;;;;4918073;29;20208;-72
2020/12/28 06:45:45;;;;;;;12.00;5.80;;;1.30;97.30;;;;;;4915996;29;20417;-72
2020/12/28 06:48:20;;;;;;;8.07;5.20;;;1.30;97.30;;;;;;4917870;29;20803;-72
2020/12/28 06:50:46;;;;;;;11.10;5.40;;;1.20;97.30;;;;;;4918036;29;20830;-72
2020/12/28 06:53:12;;;;;;;11.30;6.10;;;1.20;97.30;;;;;;4917975;29;20428;-72
2020/12/28 06:55:38;;;;;;;12.43;6.27;;;1.20;97.30;;;;;;4917650;29;20437;-72
2020/12/28 06:58:03;;;;;;;9.83;5.97;;;1.20;97.30;;;;;;4918824;29;20184;-72
2020/12/28 07:00:29;;;;;;;12.33;6.67;;;1.20;97.30;;;;;;4917788;29;20185;-72
2020/12/28 07:02:56;;;;;;;11.77;5.87;;;1.20;97.30;;;;;;4917790;29;20569;-72
2020/12/28 07:05:24;;;;;;;10.97;6.40;;;1.20;97.30;;;;;;4912927;29;20188;-72
2020/12/28 07:07:50;;;;;;;10.07;5.83;;;1.20;97.30;;;;;;4917563;29;20421;-72
2020/12/28 07:10:21;;;;;;;12.93;5.60;;;1.20;97.30;;;;;;4917427;29;20519;-72
2020/12/28 07:12:48;;;;;;;11.30;6.30;;;1.20;97.30;;;;;;4917651;29;20433;-72
2020/12/28 07:15:15;;;;;;;11.87;6.60;;;1.20;97.30;;;;;;4918506;29;20452;-72
2020/12/28 07:17:41;;;;;;;9.70;5.47;;;1.20;97.30;;;;;;4915234;29;20417;-71
2020/12/28 07:20:13;;;;;;;9.77;5.77;;;1.30;97.30;;;;;;4915075;29;20507;-71
2020/12/28 07:22:42;;;;;;;10.17;5.57;;;1.30;97.30;;;;;;4916513;29;20204;-72
2020/12/28 07:25:10;;;;;;;12.00;5.67;;;1.30;97.30;;;;;;4917039;29;20432;-71
2020/12/28 07:27:39;;;;;;;13.00;6.20;;;1.30;97.30;;;;;;4916653;29;20957;-71
2020/12/28 07:30:13;;;;;;;11.67;6.53;;;1.40;97.30;;;;;;4916967;29;20452;-72
2020/12/28 07:32:40;;;;;;;11.50;7.97;;;1.40;97.30;;;;;;4914331;29;20431;-71
2020/12/28 07:35:07;;;;;;;10.97;7.80;;;1.40;97.30;;;;;;4916847;29;20432;-71
2020/12/28 07:37:38;;;;;;;11.87;7.43;;;1.40;97.30;;;;;;4916468;29;20880;-71
2020/12/28 07:40:05;;;;;;;11.70;6.73;;;1.40;97.30;;;;;;4914488;29;20439;-72
2020/12/28 07:42:31;;;;;;;17.60;7.10;;;1.40;97.30;;;;;;4917700;29;20468;-72
2020/12/28 07:45:05;;;;;;;14.53;7.10;;;1.40;97.30;;;;;;4917949;29;20426;-72
2020/12/28 07:47:43;;;;;;;12.50;7.43;;;1.30;97.30;;;;;;4915770;29;20180;-72
2020/12/28 07:50:12;;;;;;;9.07;5.50;;;1.30;97.30;;;;;;4914510;29;20429;-72
2020/12/28 07:53:09;;;;;;;12.50;5.67;;;1.20;97.30;;;;;;4932149;29;20452;-72
2020/12/28 07:55:42;;;;;;;9.50;5.60;;;1.20;97.30;;;;;;4914564;29;20455;-72
2020/12/28 07:58:30;;;;;;;10.97;5.67;;;1.30;97.30;;;;;;4916874;29;20428;-71
2020/12/28 08:00:59;;;;;;;10.27;5.90;;;1.30;97.30;;;;;;4932719;29;20467;-72
2020/12/28 08:03:39;;;;;;;7.73;5.13;;;1.40;97.30;;;;;;4916578;29;20531;-72
2020/12/28 08:06:09;;;;;;;12.53;6.20;;;1.50;97.30;;;;;;4909203;29;20429;-72
2020/12/28 08:08:35;;;;;;;8.90;4.90;;;1.50;97.30;;;;;;4917231;29;20789;-72
2020/12/28 08:11:04;;;;;;;8.43;4.63;;;1.60;97.30;;;;;;4916677;29;20429;-72
2020/12/28 08:13:34;;;;;;;8.70;5.93;;;1.70;97.30;;;;;;4918027;29;20233;-72
2020/12/28 08:16:11;;;;;;;10.70;6.00;;;1.70;97.30;;;;;;4917719;29;20425;-72
2020/12/28 08:18:51;;;;;;;9.27;5.40;;;1.70;97.30;;;;;;4917792;29;20430;-72
2020/12/28 08:21:17;;;;;;;11.73;5.90;;;1.70;97.30;;;;;;4898001;29;20502;-72
2020/12/28 08:23:50;;;;;;;11.57;6.07;;;1.70;97.30;;;;;;4916286;29;20499;-72
2020/12/28 08:26:18;;;;;;;10.63;5.83;;;1.70;97.30;;;;;;4917029;29;20425;-71
2020/12/28 08:28:52;;;;;;;9.77;5.60;;;1.70;97.30;;;;;;4916303;29;20477;-72
2020/12/28 08:31:27;;;;;;;9.80;5.57;;;1.70;97.30;;;;;;4914964;29;20883;-72
2020/12/28 08:34:00;;;;;;;10.67;5.40;;;1.70;97.30;;;;;;4916328;29;20515;-73
2020/12/28 08:36:26;;;;;;;10.97;5.50;;;1.80;97.30;;;;;;4917761;29;20416;-72
2020/12/28 08:38:51;;;;;;;10.93;5.47;;;1.90;97.30;;;;;;4916025;29;20429;-73
2020/12/28 08:41:17;;;;;;;10.40;5.20;;;2.00;97.30;;;;;;4916135;29;20624;-73
2020/12/28 08:43:47;;;;;;;9.60;5.03;;;2.10;97.30;;;;;;4916159;29;20204;-73
2020/12/28 08:46:13;;;;;;;10.87;5.10;;;2.20;97.30;;;;;;4917567;29;20184;-73
2020/12/28 08:48:42;;;;;;;10.27;5.10;;;2.30;97.30;;;;;;4900531;29;20413;-73
2020/12/28 08:51:18;;;;;;;8.37;4.70;;;2.40;97.30;;;;;;4916378;29;20468;-73
2020/12/28 08:53:51;;;;;;;8.20;4.50;;;2.60;97.30;;;;;;4902048;29;20424;-73
2020/12/28 08:56:17;;;;;;;6.90;4.50;;;2.60;97.30;;;;;;4931968;29;20456;-73
2020/12/28 08:58:44;;;;;;;9.60;5.00;;;2.70;97.30;;;;;;4915931;29;20501;-73
2020/12/28 09:01:09;;;;;;;9.53;5.03;;;2.80;97.30;;;;;;4917093;29;20460;-74
2020/12/28 09:03:37;;;;;;;8.40;4.50;;;2.90;97.30;;;;;;4917193;29;20519;-74
2020/12/28 09:06:07;;;;;;;9.53;5.17;;;3.00;97.30;;;;;;4915985;29;20639;-74
2020/12/28 09:08:33;;;;;;;10.20;5.27;;;3.00;97.30;;;;;;4915946;29;20425;-74
2020/12/28 09:10:59;;;;;;;9.63;5.17;;;3.10;97.30;;;;;;4915763;29;20518;-74
2020/12/28 09:13:25;;;;;;;9.77;4.80;;;3.20;97.30;;;;;;4915736;29;20527;-74
2020/12/28 09:15:51;;;;;;;7.90;4.67;;;3.20;97.30;;;;;;4915439;29;20192;-74
2020/12/28 09:18:17;;;;;;;11.43;5.23;;;3.30;97.30;;;;;;4909590;29;20978;-74
2020/12/28 09:20:42;;;;;;;9.03;4.77;;;3.40;97.30;;;;;;4903665;29;20227;-74
2020/12/28 09:23:08;;;;;;;9.93;4.63;;;3.40;97.30;;;;;;4902982;29;20216;-74
2020/12/28 09:25:34;;;;;;;6.23;4.20;;;3.50;97.30;;;;;;4915848;29;20667;-74
2020/12/28 09:28:00;;;;;;;9.30;5.33;;;3.50;97.30;;;;;;4914988;29;20419;-75
2020/12/28 09:30:25;;;;;;;7.93;4.40;;;3.60;97.30;;;;;;4916334;29;20643;-74
2020/12/28 09:32:51;;;;;;;8.10;4.77;;;3.60;97.30;;;;;;4915016;29;20663;-74
2020/12/28 09:35:18;;;;;;;9.07;4.60;;;3.70;97.30;;;;;;4914561;29;20184;-75
2020/12/28 09:37:44;;;;;;;9.80;4.53;;;3.70;97.30;;;;;;4915098;29;20177;-74
2020/12/28 09:40:10;;;;;;;8.70;4.67;;;3.80;97.30;;;;;;4915608;29;20423;-73
2020/12/28 09:42:36;;;;;;;9.87;4.83;;;3.90;97.30;;;;;;4916954;29;20547;-73
2020/12/28 09:45:03;;;;;;;7.20;4.40;;;3.90;97.30;;;;;;4915725;29;20926;-74
2020/12/28 09:47:29;;;;;;;10.27;5.20;;;4.00;97.30;;;;;;4930956;29;20555;-74
2020/12/28 09:50:33;;;;;;;10.80;5.07;;;4.10;97.30;;;;;;4915269;29;20420;-75
2020/12/28 09:53:05;;;;;;;10.67;5.20;;;4.10;97.30;;;;;;4916206;29;20176;-74
2020/12/28 09:55:33;;;;;;;11.30;5.07;;;4.20;97.30;;;;;;4915437;29;20543;-74
2020/12/28 09:58:02;;;;;;;12.57;5.17;;;4.30;97.30;;;;;;4916442;29;20412;-75
2020/12/28 10:00:32;;;;;;;11.13;5.20;;;4.30;97.30;;;;;;4914983;29;20421;-75
2020/12/28 10:02:58;;;;;;;9.70;4.90;;;4.30;97.30;;;;;;4915040;29;20495;-75
2020/12/28 10:05:23;;;;;;;7.90;4.30;;;4.40;97.30;;;;;;4915113;29;20918;-74
2020/12/28 10:07:49;;;;;;;9.93;5.47;;;4.40;97.30;;;;;;4915316;29;20184;-74
2020/12/28 10:10:14;;;;;;;7.93;4.10;;;4.50;97.30;;;;;;4915312;29;20188;-74
2020/12/28 10:12:40;;;;;;;8.70;4.80;;;4.50;97.30;;;;;;4914747;29;20183;-74
2020/12/28 10:15:06;;;;;;;10.37;4.93;;;4.50;97.30;;;;;;4916286;29;20762;-74
2020/12/28 10:17:34;;;;;;;12.90;5.60;;;4.60;97.30;;;;;;4915242;29;20435;-74
2020/12/28 10:19:59;;;;;;;9.90;5.37;;;4.60;97.30;;;;;;4914581;29;20267;-74
2020/12/28 10:22:28;;;;;;;11.30;5.40;;;4.70;97.30;;;;;;4915415;29;21084;-74
2020/12/28 10:24:54;;;;;;;8.03;4.73;;;4.70;97.30;;;;;;4915547;29;20344;-74
2020/12/28 10:27:20;;;;;;;7.13;4.90;;;4.80;97.30;;;;;;4914408;29;21006;-74
2020/12/28 10:29:46;;;;;;;9.50;4.70;;;4.80;97.30;;;;;;4915081;29;20184;-74
2020/12/28 10:32:12;;;;;;;9.20;4.80;;;4.90;97.30;;;;;;4915293;29;20480;-74
2020/12/28 10:34:37;;;;;;;9.77;4.60;;;5.00;97.30;;;;;;4915311;29;20452;-74
2020/12/28 10:37:03;;;;;;;8.70;4.23;;;5.00;97.30;;;;;;4915063;29;20475;-74
2020/12/28 10:39:29;;;;;;;8.17;3.97;;;5.10;97.30;;;;;;4915048;29;20545;-75
2020/12/28 10:41:54;;;;;;;10.10;4.43;;;5.10;97.30;;;;;;4915003;29;20235;-75
2020/12/28 10:44:21;;;;;;;7.70;4.60;;;5.20;97.30;;;;;;4916304;29;20181;-74
2020/12/28 10:46:47;;;;;;;5.70;3.87;;;5.30;97.30;;;;;;4915242;29;20271;-74
2020/12/28 10:49:13;;;;;;;6.70;4.20;;;5.30;97.30;;;;;;4915714;29;20840;-74
2020/12/28 10:51:38;;;;;;;7.03;4.33;;;5.40;97.30;;;;;;4919734;29;20189;-74
2020/12/28 10:54:04;;;;;;;8.93;4.13;;;5.40;97.30;;;;;;4918578;29;20651;-75
2020/12/28 10:56:31;;;;;;;7.33;3.80;;;5.40;97.30;;;;;;4918557;29;20529;-74
2020/12/28 10:58:57;;;;;;;8.30;4.57;;;5.50;97.30;;;;;;4918274;29;20583;-74
2020/12/28 11:01:27;;;;;;;9.83;4.90;;;5.60;97.30;;;;;;4918256;29;20464;-73
2020/12/28 11:03:53;;;;;;;7.53;4.70;;;5.60;97.30;;;;;;4918197;29;20824;-74
2020/12/28 11:06:20;;;;;;;12.03;5.27;;;5.70;97.30;;;;;;4918394;29;20420;-74
2020/12/28 11:08:46;;;;;;;10.20;5.10;;;5.80;97.30;;;;;;4917903;29;20479;-74
2020/12/28 11:11:11;;;;;;;10.37;5.30;;;5.90;97.30;;;;;;4918185;29;20432;-74
2020/12/28 11:13:37;;;;;;;9.37;5.20;;;5.90;97.30;;;;;;4918322;29;20268;-74
2020/12/28 11:16:03;;;;;;;8.07;5.00;;;5.90;97.30;;;;;;4918036;29;20184;-74
2020/12/28 11:18:29;;;;;;;9.77;5.03;;;5.90;97.00;;;;;;4917931;29;20421;-74
2020/12/28 11:20:54;;;;;;;8.27;5.20;;;5.90;97.30;;;;;;4918110;29;20800;-75
2020/12/28 11:23:20;;;;;;;8.93;4.97;;;5.90;97.30;;;;;;4917748;29;20303;-75
2020/12/28 11:25:46;;;;;;;10.23;5.27;;;5.90;97.00;;;;;;4917867;29;20550;-74
2020/12/28 11:28:12;;;;;;;9.30;5.13;;;5.90;97.30;;;;;;4917904;29;20183;-74
2020/12/28 11:30:37;;;;;;;7.97;5.10;;;6.00;97.30;;;;;;4917875;29;20201;-73
2020/12/28 11:33:03;;;;;;;12.40;5.40;;;6.10;97.00;;;;;;4917895;29;20184;-74
2020/12/28 11:35:30;;;;;;;11.37;6.53;;;6.10;96.50;;;;;;4917736;29;20187;-74
2020/12/28 11:37:56;;;;;;;12.40;6.40;;;6.20;96.80;;;;;;4917621;29;20451;-74
2020/12/28 11:40:23;;;;;;;14.40;6.30;;;6.30;96.60;;;;;;4918797;29;21018;-74
2020/12/28 11:42:49;;;;;;;9.70;5.60;;;6.40;96.10;;;;;;4918038;29;20472;-74
2020/12/28 11:45:14;;;;;;;14.60;7.10;;;6.40;95.80;;;;;;4917777;29;20424;-75
2020/12/28 11:47:40;;;;;;;13.90;6.40;;;6.40;95.80;;;;;;4917433;29;20946;-75
2020/12/28 11:50:07;;;;;;;11.23;6.23;;;6.40;95.10;;;;;;4917417;29;20188;-74
2020/12/28 11:52:33;;;;;;;11.90;5.93;;;6.40;95.10;;;;;;4918651;29;20228;-74
2020/12/28 11:54:59;;;;;;;11.43;6.37;;;6.30;95.30;;;;;;4917395;29;20998;-74
2020/12/28 11:57:24;;;;;;;12.87;6.27;;;6.30;95.50;;;;;;4917616;29;20424;-74
2020/12/28 11:59:50;;;;;;;12.60;7.00;;;6.20;95.20;;;;;;4933468;29;20524;-75
2020/12/28 12:02:19;;;;;;;17.33;7.53;;;6.20;95.70;;;;;;4917587;29;20282;-74
2020/12/28 12:04:48;;;;;;;10.37;6.20;;;6.30;95.80;;;;;;4918889;29;20177;-74
2020/12/28 12:07:22;;;;;;;11.17;6.03;;;6.40;95.40;;;;;;4917161;29;20417;-75
2020/12/28 12:09:49;;;;;;;11.67;7.10;;;6.70;95.20;;;;;;4916970;29;20433;-74
2020/12/28 12:12:16;;;;;;;12.20;6.23;;;7.00;94.50;;;;;;4916803;29;20452;-74
2020/12/28 12:14:41;;;;;;;13.07;6.00;;;7.20;93.70;;;;;;4916014;29;20424;-74
2020/12/28 12:17:08;;;;;;;11.10;7.20;;;7.50;93.00;;;;;;4917150;29;20573;-74
2020/12/28 12:19:34;;;;;;;11.57;6.63;;;7.70;92.90;;;;;;4917248;29;20185;-74
2020/12/28 12:22:00;;;;;;;13.80;6.67;;;7.90;91.60;;;;;;4918259;29;20455;-75
2020/12/28 12:24:25;;;;;;;12.10;6.63;;;7.90;91.60;;;;;;4915962;29;20193;-75
2020/12/28 12:26:51;;;;;;;10.30;5.70;;;7.80;91.40;;;;;;4913448;29;20235;-74
2020/12/28 12:29:17;;;;;;;17.43;7.20;;;7.50;91.20;;;;;;4898042;29;20188;-74
2020/12/28 12:31:43;;;;;;;11.93;6.20;;;7.20;92.10;;;;;;4897955;29;20554;-74
2020/12/28 12:34:08;;;;;;;11.80;6.30;;;6.90;92.30;;;;;;4897930;29;20425;-74
2020/12/28 12:36:35;;;;;;;11.70;6.50;;;6.80;93.10;;;;;;4897784;29;20788;-75
2020/12/28 12:39:02;;;;;;;11.87;6.47;;;6.70;93.40;;;;;;4897822;29;20281;-74
2020/12/28 12:41:28;;;;;;;13.10;7.90;;;6.80;93.70;;;;;;4898462;29;20459;-73
2020/12/28 12:43:54;;;;;;;11.27;6.20;;;7.00;93.50;;;;;;4916352;29;20547;-74
2020/12/28 12:46:19;;;;;;;10.73;6.37;;;7.20;93.10;;;;;;4916435;29;20183;-74
2020/12/28 12:48:46;;;;;;;15.23;7.17;;;7.40;92.80;;;;;;4916237;29;20238;-74
2020/12/28 12:51:12;;;;;;;10.10;5.57;;;7.60;92.50;;;;;;4916272;29;20259;-74
2020/12/28 12:53:38;;;;;;;12.40;6.13;;;7.60;92.00;;;;;;4917446;29;20459;-73
2020/12/28 12:56:04;;;;;;;13.33;6.93;;;7.70;91.80;;;;;;4916297;29;20456;-73
2020/12/28 12:58:30;;;;;;;11.93;6.50;;;7.90;91.50;;;;;;4916131;29;20452;-72
2020/12/28 13:00:55;;;;;;;12.57;7.03;;;7.90;91.30;;;;;;4916150;29;20215;-73
2020/12/28 13:03:22;;;;;;;12.60;7.20;;;8.00;91.40;;;;;;4916077;29;20219;-74
2020/12/28 13:05:48;;;;;;;11.33;6.87;;;7.90;91.00;;;;;;4917178;29;20172;-74
2020/12/28 13:08:14;;;;;;;14.47;7.60;;;7.80;90.90;;;;;;4915870;29;20523;-74
2020/12/28 13:10:40;;;;;;;12.57;6.67;;;7.70;91.10;;;;;;4916010;29;20551;-74
2020/12/28 13:13:07;;;;;;;12.17;6.40;;;7.60;91.50;;;;;;4915646;29;20518;-74
2020/12/28 13:15:33;;;;;;;13.03;7.17;;;7.50;91.60;;;;;;4915070;29;20196;-77
2020/12/28 13:18:00;;;;;;;13.37;7.27;;;7.30;91.80;;;;;;4916702;29;20424;-74
2020/12/28 13:20:26;;;;;;;14.40;7.33;;;7.10;92.00;;;;;;4916184;29;20436;-74
2020/12/28 13:22:53;;;;;;;11.33;6.70;;;6.80;92.80;;;;;;4915959;29;20802;-74
2020/12/28 13:25:19;;;;;;;12.90;7.33;;;6.60;93.10;;;;;;4931429;29;20417;-74
2020/12/28 13:27:47;;;;;;;13.27;7.23;;;6.50;93.80;;;;;;4916220;29;20432;-74
2020/12/28 13:30:14;;;;;;;11.23;6.50;;;6.30;94.40;;;;;;4900049;29;20439;-75
2020/12/28 13:32:49;;;;;;;11.10;7.20;;;6.30;94.70;;;;;;4917164;29;20524;-73
2020/12/28 13:35:16;;;;;;;11.37;6.80;;;6.10;95.10;;;;;;4915936;29;20926;-74
2020/12/28 13:37:45;;;;;;;13.30;6.90;;;6.00;95.60;;;;;;4914256;29;21207;-74
2020/12/28 13:40:11;;;;;;;10.93;7.00;;;6.00;95.60;;;;;;4916246;29;20523;-73
2020/12/28 13:42:38;;;;;;;14.47;7.30;;;6.00;95.80;;;;;;4915743;29;20574;-74
2020/12/28 13:45:08;;;;;;;10.07;6.43;;;5.90;95.80;;;;;;4920386;29;20427;-76
2020/12/28 13:47:35;;;;;;;15.10;7.10;;;5.90;96.00;;;;;;4922670;29;20421;-75
2020/12/28 13:50:01;;;;;;;14.70;7.47;;;5.90;96.10;;;;;;4922995;29;20957;-75
2020/12/28 13:52:29;;;;;;;14.07;7.20;;;5.80;96.10;;;;;;4926685;29;20482;-74
2020/12/28 13:54:55;;;;;;;12.90;7.17;;;5.60;96.20;;;;;;4927942;29;20468;-74
2020/12/28 13:57:24;;;;;;;17.27;7.83;;;5.60;96.60;;;;;;4923189;29;20434;-74
2020/12/28 13:59:50;;;;;;;14.40;7.50;;;5.50;96.60;;;;;;4923643;29;20428;-74
2020/12/28 14:02:16;;;;;;;10.17;7.13;;;5.50;96.90;;;;;;4923098;29;20477;-73
2020/12/28 14:04:42;;;;;;;12.70;7.60;;;5.50;96.90;;;;;;4908527;29;20523;-74
2020/12/28 14:07:08;;;;;;;11.40;7.10;;;5.50;97.10;;;;;;4921948;29;20886;-74
2020/12/28 14:09:35;;;;;;;16.60;10.50;;;5.40;97.10;;;;;;4925365;29;20420;-75
2020/12/28 14:12:00;;;;;;;21.80;10.20;;;5.40;97.30;;;;;;4924154;29;20456;-75
2020/12/28 14:14:28;;;;;;;20.37;10.33;;;5.30;97.30;;;;;;4920962;29;20428;-74
2020/12/28 14:16:54;;;;;;;14.23;8.37;;;5.30;97.30;;;;;;4914161;29;21120;-74
2020/12/28 14:19:20;;;;;;;14.40;7.60;;;5.20;97.30;;;;;;4915539;29;20484;-74
2020/12/28 14:21:47;;;;;;;14.77;7.87;;;5.20;97.30;;;;;;4913869;29;20490;-74
2020/12/28 14:24:14;;;;;;;17.17;9.60;;;5.20;97.30;;;;;;4915279;29;20208;-72
2020/12/28 14:26:40;;;;;;;17.33;10.67;;;5.10;97.30;;;;;;4918911;29;20416;-73
2020/12/28 14:29:06;;;;;;;19.23;8.63;;;5.00;97.30;;;;;;4934807;29;20878;-73
2020/12/28 14:31:32;;;;;;;18.00;9.87;;;5.00;97.30;;;;;;4919882;29;20431;-74
2020/12/28 14:33:58;;;;;;;16.87;9.60;;;4.90;97.30;;;;;;4919166;29;20941;-74
2020/12/28 14:36:24;;;;;;;14.80;8.07;;;4.90;97.30;;;;;;4903145;29;20428;-73
2020/12/28 14:38:53;;;;;;;16.93;10.10;;;4.80;97.30;;;;;;4920014;29;20500;-74
2020/12/28 14:41:20;;;;;;;13.73;8.27;;;4.80;97.30;;;;;;4918718;29;20939;-74
2020/12/28 14:43:48;;;;;;;13.70;7.80;;;4.70;97.30;;;;;;4918535;29;20496;-74
2020/12/28 14:46:16;;;;;;;14.37;8.53;;;4.70;97.30;;;;;;4918682;29;20421;-73
2020/12/28 14:48:42;;;;;;;17.40;8.33;;;4.70;97.30;;;;;;4919700;29;20419;-73
2020/12/28 14:51:09;;;;;;;20.83;9.60;;;4.70;97.30;;;;;;4934639;29;20539;-73
2020/12/28 14:53:39;;;;;;;17.37;9.13;;;4.70;97.30;;;;;;4918613;29;20536;-73
2020/12/28 14:56:05;;;;;;;13.13;7.40;;;4.70;97.30;;;;;;4903079;29;20945;-74
2020/12/28 14:58:33;;;;;;;13.97;8.40;;;4.60;97.30;;;;;;4918465;29;20432;-74
2020/12/28 15:01:00;;;;;;;12.93;7.90;;;4.60;97.30;;;;;;4919462;29;20460;-74
2020/12/28 15:03:26;;;;;;;28.77;8.87;;;4.60;97.30;;;;;;4934141;29;20471;-73
2020/12/28 15:05:52;;;;;;;14.70;8.90;;;4.60;97.30;;;;;;4919714;29;20417;-73
2020/12/28 15:08:17;;;;;;;15.63;7.77;;;4.60;97.30;;;;;;4934089;29;20970;-73
2020/12/28 15:10:45;;;;;;;13.13;7.10;;;4.60;97.30;;;;;;4918071;29;20480;-73
2020/12/28 15:13:12;;;;;;;20.37;10.00;;;4.60;97.30;;;;;;4918392;29;20515;-74
2020/12/28 15:15:40;;;;;;;38.53;15.47;;;4.60;97.30;;;;;;4919196;29;20432;-74
2020/12/28 15:18:08;;;;;;;25.77;12.37;;;4.50;97.30;;;;;;4919190;29;20955;-74
2020/12/28 15:20:35;;;;;;;21.37;9.13;;;4.50;97.30;;;;;;4917989;29;20455;-73
2020/12/28 15:23:01;;;;;;;12.63;7.90;;;4.50;97.30;;;;;;4919104;29;20519;-74
2020/12/28 15:25:27;;;;;;;11.13;7.17;;;4.40;97.30;;;;;;4918005;29;20831;-74
2020/12/28 15:27:52;;;;;;;15.97;8.10;;;4.40;97.30;;;;;;4917478;29;20432;-74
2020/12/28 15:30:18;;;;;;;14.40;7.60;;;4.40;97.30;;;;;;4918608;29;20452;-74
2020/12/28 15:32:44;;;;;;;22.37;11.37;;;4.40;97.30;;;;;;4917790;29;20196;-74
2020/12/28 15:35:10;;;;;;;20.97;10.20;;;4.40;97.30;;;;;;4917579;29;20444;-74
2020/12/28 15:37:36;;;;;;;17.67;9.40;;;4.30;97.30;;;;;;4917253;29;20188;-74
2020/12/28 15:40:02;;;;;;;19.30;9.87;;;4.20;97.30;;;;;;4917611;29;20793;-74
2020/12/28 15:42:29;;;;;;;16.40;9.50;;;4.20;97.30;;;;;;4917527;29;20260;-74
2020/12/28 15:44:55;;;;;;;15.60;8.90;;;4.20;97.30;;;;;;4917652;29;20421;-74
2020/12/28 15:47:22;;;;;;;14.17;7.57;;;4.10;97.30;;;;;;4917340;29;20420;-74
2020/12/28 15:49:49;;;;;;;14.83;8.30;;;4.10;97.30;;;;;;4917511;29;20488;-74
2020/12/28 15:52:15;;;;;;;17.00;9.30;;;4.10;97.30;;;;;;4917272;29;20484;-74
2020/12/28 15:54:42;;;;;;;21.00;10.87;;;4.10;97.30;;;;;;4901752;29;20875;-74
2020/12/28 15:57:09;;;;;;;21.80;10.63;;;4.10;97.30;;;;;;4917218;29;20476;-71
2020/12/28 15:59:35;;;;;;;15.63;10.37;;;4.00;97.30;;;;;;4917240;29;20429;-74
2020/12/28 16:02:04;;;;;;;16.30;9.50;;;4.00;97.30;;;;;;4917090;29;20551;-74
2020/12/28 16:04:31;;;;;;;15.10;9.57;;;4.00;97.30;;;;;;4917215;29;20900;-73
2020/12/28 16:06:58;;;;;;;19.30;9.90;;;4.00;97.30;;;;;;4916864;29;20930;-74
2020/12/28 16:09:24;;;;;;;18.00;9.90;;;4.00;97.30;;;;;;4917748;29;20846;-73
2020/12/28 16:11:51;;;;;;;17.53;9.80;;;3.90;97.30;;;;;;4899908;29;20818;-75
2020/12/28 16:14:17;;;;;;;15.53;9.53;;;3.90;97.30;;;;;;4900157;29;20791;-74
2020/12/28 16:16:43;;;;;;;34.67;20.30;;;3.80;97.30;;;;;;4917002;29;20526;-74
2020/12/28 16:19:10;;;;;;;31.37;16.50;;;3.70;97.30;;;;;;4917466;29;20512;-73
2020/12/28 16:21:36;;;;;;;39.77;20.57;;;3.70;97.30;;;;;;4916968;29;20509;-74
2020/12/28 16:24:02;;;;;;;42.20;17.33;;;3.60;97.30;;;;;;4916757;29;20495;-74
2020/12/28 16:26:28;;;;;;;28.70;15.20;;;3.60;97.30;;;;;;4916906;29;20423;-74
2020/12/28 16:28:55;;;;;;;24.77;11.80;;;3.60;97.30;;;;;;4932310;29;20429;-74
2020/12/28 16:31:21;;;;;;;26.77;13.13;;;3.60;97.30;;;;;;4916758;29;20534;-74
2020/12/28 16:33:47;;;;;;;30.83;14.03;;;3.60;97.30;;;;;;4916548;29;20425;-74
2020/12/28 16:36:15;;;;;;;17.57;10.07;;;3.70;97.30;;;;;;4916730;29;20436;-74
2020/12/28 16:38:43;;;;;;;24.50;12.70;;;3.70;97.30;;;;;;4916614;29;20425;-74
2020/12/28 16:41:16;;;;;;;27.23;14.03;;;3.70;97.30;;;;;;4916676;29;20956;-74
2020/12/28 16:43:43;;;;;;;20.90;11.97;;;3.80;97.30;;;;;;4900851;29;20468;-74
2020/12/28 16:46:17;;;;;;;21.07;10.73;;;3.80;97.30;;;;;;4916905;29;20427;-73
2020/12/28 16:48:43;;;;;;;19.97;10.37;;;3.80;97.30;;;;;;4915901;29;20429;-76
2020/12/28 16:51:10;;;;;;;22.90;12.40;;;3.80;97.30;;;;;;4915837;29;20452;-74
2020/12/28 16:53:37;;;;;;;20.70;10.27;;;3.80;97.30;;;;;;4916350;29;20946;-75
2020/12/28 16:56:04;;;;;;;24.67;13.27;;;3.80;97.30;;;;;;4917521;29;20424;-73
2020/12/28 16:58:29;;;;;;;23.90;12.20;;;3.80;97.30;;;;;;4916202;29;20413;-73
2020/12/28 17:00:55;;;;;;;23.47;12.67;;;3.80;97.30;;;;;;4916178;29;20511;-73
2020/12/28 17:03:21;;;;;;;21.90;11.17;;;3.90;97.30;;;;;;4916041;29;20997;-74
2020/12/28 17:05:47;;;;;;;24.40;11.60;;;3.90;97.30;;;;;;4916140;29;20420;-73
2020/12/28 17:08:13;;;;;;;26.97;10.60;;;3.90;97.30;;;;;;4915930;29;20181;-73
2020/12/28 17:10:39;;;;;;;22.90;11.70;;;3.90;97.30;;;;;;4915936;29;20831;-73
2020/12/28 17:13:06;;;;;;;18.00;10.10;;;3.90;97.30;;;;;;4916152;29;20658;-73
2020/12/28 17:15:32;;;;;;;24.47;14.47;;;3.90;97.30;;;;;;4916112;29;20184;-73
2020/12/28 17:17:58;;;;;;;20.40;11.67;;;3.90;97.30;;;;;;4916694;29;20537;-73
2020/12/28 17:20:23;;;;;;;20.87;11.73;;;3.90;97.30;;;;;;4915904;29;20437;-73
2020/12/28 17:22:52;;;;;;;22.20;11.67;;;3.90;97.30;;;;;;4915837;29;21004;-73
2020/12/28 17:25:18;;;;;;;19.57;10.40;;;3.90;97.30;;;;;;4916956;29;20188;-73
2020/12/28 17:27:46;;;;;;;26.50;12.40;;;3.90;97.30;;;;;;4915570;29;20794;-73
2020/12/28 17:30:12;;;;;;;23.63;12.57;;;3.80;97.30;;;;;;4915710;29;20793;-73
2020/12/28 17:32:38;;;;;;;23.33;12.70;;;3.80;97.30;;;;;;4916854;29;20519;-74
2020/12/28 17:35:04;;;;;;;21.73;10.67;;;3.80;97.30;;;;;;4916915;29;20453;-73
2020/12/28 17:37:30;;;;;;;20.00;10.10;;;3.70;97.30;;;;;;4915340;29;20181;-73
2020/12/28 17:39:55;;;;;;;21.37;10.90;;;3.70;97.30;;;;;;4915622;29;20915;-73
2020/12/28 17:42:21;;;;;;;18.30;10.80;;;3.80;97.30;;;;;;4916830;29;20227;-73
2020/12/28 17:44:47;;;;;;;26.83;11.83;;;3.80;97.30;;;;;;4915484;29;20662;-73
2020/12/28 17:47:12;;;;;;;19.53;10.70;;;3.80;97.30;;;;;;4916508;29;20199;-73
2020/12/28 17:49:38;;;;;;;19.57;11.20;;;3.80;97.30;;;;;;4915390;29;20184;-73
2020/12/28 17:52:04;;;;;;;24.83;11.27;;;3.80;97.30;;;;;;4916513;29;20441;-73
2020/12/28 17:54:30;;;;;;;21.50;10.70;;;3.70;97.30;;;;;;4915514;29;20275;-73
2020/12/28 17:56:56;;;;;;;22.20;11.70;;;3.70;97.30;;;;;;4915274;29;20507;-73
2020/12/28 17:59:22;;;;;;;20.60;10.40;;;3.70;97.30;;;;;;4914839;29;20196;-73
2020/12/28 18:01:49;;;;;;;21.50;11.13;;;3.70;97.30;;;;;;4919222;29;20220;-73
2020/12/28 18:04:14;;;;;;;16.83;10.33;;;3.70;97.30;;;;;;4919068;29;20539;-73
2020/12/28 18:06:45;;;;;;;20.20;11.60;;;3.60;97.30;;;;;;4918770;29;20935;-73
2020/12/28 18:09:11;;;;;;;20.07;11.20;;;3.60;97.30;;;;;;4918733;29;20195;-73
2020/12/28 18:11:37;;;;;;;21.27;10.97;;;3.60;97.30;;;;;;4920219;29;20452;-73
2020/12/28 18:14:03;;;;;;;31.33;18.13;;;3.60;97.30;;;;;;4918612;29;20559;-73
2020/12/28 18:16:29;;;;;;;24.63;12.90;;;3.60;97.30;;;;;;4918836;29;20197;-73
2020/12/28 18:18:55;;;;;;;27.50;13.07;;;3.60;97.30;;;;;;4919975;29;20187;-73
2020/12/28 18:21:23;;;;;;;27.80;12.90;;;3.60;97.30;;;;;;4902732;29;20477;-73
2020/12/28 18:23:49;;;;;;;22.23;11.37;;;3.60;97.30;;;;;;4918784;29;20994;-73
2020/12/28 18:26:16;;;;;;;29.43;13.80;;;3.60;97.30;;;;;;4918969;29;20420;-73
2020/12/28 18:28:42;;;;;;;24.03;11.57;;;3.60;97.30;;;;;;4919644;29;20181;-73
2020/12/28 18:31:11;;;;;;;21.83;11.27;;;3.60;97.30;;;;;;4918494;29;20451;-73
2020/12/28 18:33:37;;;;;;;23.10;11.53;;;3.60;97.30;;;;;;4918598;29;20486;-73
2020/12/28 18:36:05;;;;;;;21.87;11.10;;;3.50;97.30;;;;;;4918267;29;20430;-74
2020/12/28 18:38:31;;;;;;;24.10;12.10;;;3.50;97.30;;;;;;4919693;29;20499;-73
2020/12/28 18:40:57;;;;;;;21.73;11.20;;;3.60;97.30;;;;;;4918375;29;20474;-75
2020/12/28 18:43:23;;;;;;;26.33;11.97;;;3.60;97.30;;;;;;4918071;29;20850;-72
2020/12/28 18:45:50;;;;;;;25.70;12.43;;;3.60;97.30;;;;;;4918419;29;20195;-74